Mount Pleasant, Washington
Current Conditions -  °F | °C
As of 6:19 PM on Saturday 25 Oct 2014 (Local Time) from KCLM Reporting Station
Moderate Rain Moderate Rain  
Wind Chill: 53°   Ceiling: 400
Heat Index: 53°   Visibility: 4mi
Dew Point: 51°   Wind: 10mph
Humidity: 93%   Direction: 260°W
Pressure: 29.26"   Gusts: NA
Location:  48.0203°N, 123.478°W
Report Text: KCLM 260119Z AUTO 26009KT 4SM RA BR OVC004 12/11 A2926 RMK AO2 P0009 T01170106 TSNO $
Loading
Personal Weather Stations






























Interactive Weather Map
Tropical Storm Tracking
New forecast layout! Learn more

10-Day Weather Forecast

Advertisements
Track Severe Weather on mobile